sensor_id;sensor_type;location;lat;lon;timestamp;temperature;humidity
26703;DHT22;14316;51.074;3.704;2023-06-04T00:02:23;15.60;99.90
26703;DHT22;14316;51.074;3.704;2023-06-04T00:04:49;15.60;99.90
26703;DHT22;14316;51.074;3.704;2023-06-04T00:07:15;15.60;99.90
26703;DHT22;14316;51.074;3.704;2023-06-04T00:09:41;15.60;99.90
26703;DHT22;14316;51.074;3.704;2023-06-04T00:12:07;15.50;99.90
26703;DHT22;14316;51.074;3.704;2023-06-04T00:14:33;15.50;99.90
26703;DHT22;14316;51.074;3.704;2023-06-04T00:16:59;15.40;99.90
26703;DHT22;14316;51.074;3.704;2023-06-04T00:19:24;15.40;99.90
26703;DHT22;14316;51.074;3.704;2023-06-04T00:21:50;15.40;99.90
26703;DHT22;14316;51.074;3.704;2023-06-04T00:24:16;15.40;99.90
26703;DHT22;14316;51.074;3.704;2023-06-04T00:26:42;15.40;99.90
26703;DHT22;14316;51.074;3.704;2023-06-04T00:29:07;15.30;99.90
26703;DHT22;14316;51.074;3.704;2023-06-04T00:31:33;15.30;99.90
26703;DHT22;14316;51.074;3.704;2023-06-04T00:33:59;15.30;99.90
26703;DHT22;14316;51.074;3.704;2023-06-04T00:36:25;15.30;99.90
26703;DHT22;14316;51.074;3.704;2023-06-04T00:38:51;15.30;99.90
26703;DHT22;14316;51.074;3.704;2023-06-04T00:41:16;15.30;99.90
26703;DHT22;14316;51.074;3.704;2023-06-04T00:43:42;15.30;99.90
26703;DHT22;14316;51.074;3.704;2023-06-04T00:46:11;15.20;99.90
26703;DHT22;14316;51.074;3.704;2023-06-04T00:48:43;15.20;99.90
26703;DHT22;14316;51.074;3.704;2023-06-04T00:51:09;15.20;99.90
26703;DHT22;14316;51.074;3.704;2023-06-04T00:53:35;15.20;99.90
26703;DHT22;14316;51.074;3.704;2023-06-04T00:56:01;15.10;99.90
26703;DHT22;14316;51.074;3.704;2023-06-04T00:58:27;15.10;99.90
26703;DHT22;14316;51.074;3.704;2023-06-04T01:00:56;15.10;99.90
26703;DHT22;14316;51.074;3.704;2023-06-04T01:03:28;15.10;99.90
26703;DHT22;14316;51.074;3.704;2023-06-04T01:06:21;15.10;99.90
26703;DHT22;14316;51.074;3.704;2023-06-04T01:08:51;15.10;99.90
26703;DHT22;14316;51.074;3.704;2023-06-04T01:11:30;15.00;99.90
26703;DHT22;14316;51.074;3.704;2023-06-04T01:13:55;15.00;99.90
26703;DHT22;14316;51.074;3.704;2023-06-04T01:16:22;15.00;99.90
26703;DHT22;14316;51.074;3.704;2023-06-04T01:18:48;14.90;99.90
26703;DHT22;14316;51.074;3.704;2023-06-04T01:21:14;15.00;99.90
26703;DHT22;14316;51.074;3.704;2023-06-04T01:23:49;14.90;99.90
26703;DHT22;14316;51.074;3.704;2023-06-04T01:26:29;14.80;99.90
26703;DHT22;14316;51.074;3.704;2023-06-04T01:28:56;14.80;99.90
26703;DHT22;14316;51.074;3.704;2023-06-04T01:31:23;14.70;99.90
26703;DHT22;14316;51.074;3.704;2023-06-04T01:33:53;14.70;99.90
26703;DHT22;14316;51.074;3.704;2023-06-04T01:36:20;14.70;99.90
26703;DHT22;14316;51.074;3.704;2023-06-04T01:38:45;14.60;99.90
26703;DHT22;14316;51.074;3.704;2023-06-04T01:41:12;14.60;99.90
26703;DHT22;14316;51.074;3.704;2023-06-04T01:43:38;14.60;99.90
26703;DHT22;14316;51.074;3.704;2023-06-04T01:46:03;14.60;99.90
26703;DHT22;14316;51.074;3.704;2023-06-04T01:48:29;14.50;99.90
26703;DHT22;14316;51.074;3.704;2023-06-04T01:50:57;14.50;99.90
26703;DHT22;14316;51.074;3.704;2023-06-04T01:53:23;14.40;99.90
26703;DHT22;14316;51.074;3.704;2023-06-04T01:55:49;14.40;99.90
26703;DHT22;14316;51.074;3.704;2023-06-04T01:58:18;14.30;99.90
26703;DHT22;14316;51.074;3.704;2023-06-04T02:00:53;14.30;99.90
26703;DHT22;14316;51.074;3.704;2023-06-04T02:03:20;14.20;99.90
26703;DHT22;14316;51.074;3.704;2023-06-04T02:05:47;14.20;99.90
26703;DHT22;14316;51.074;3.704;2023-06-04T02:08:15;14.10;99.90
26703;DHT22;14316;51.074;3.704;2023-06-04T02:10:50;14.00;99.90
26703;DHT22;14316;51.074;3.704;2023-06-04T02:13:16;14.00;99.90
26703;DHT22;14316;51.074;3.704;2023-06-04T02:15:42;13.90;99.90
26703;DHT22;14316;51.074;3.704;2023-06-04T02:18:19;13.90;99.90
26703;DHT22;14316;51.074;3.704;2023-06-04T02:20:47;13.90;99.90
26703;DHT22;14316;51.074;3.704;2023-06-04T02:23:14;13.90;99.90
26703;DHT22;14316;51.074;3.704;2023-06-04T02:25:41;13.90;99.90
26703;DHT22;14316;51.074;3.704;2023-06-04T02:28:07;13.80;99.90
26703;DHT22;14316;51.074;3.704;2023-06-04T02:30:33;13.80;99.90
26703;DHT22;14316;51.074;3.704;2023-06-04T02:32:59;13.90;99.90
26703;DHT22;14316;51.074;3.704;2023-06-04T02:35:30;13.90;99.90
26703;DHT22;14316;51.074;3.704;2023-06-04T02:37:56;13.90;99.90
26703;DHT22;14316;51.074;3.704;2023-06-04T02:40:26;14.00;99.90
26703;DHT22;14316;51.074;3.704;2023-06-04T02:42:53;14.00;99.90
26703;DHT22;14316;51.074;3.704;2023-06-04T02:45:19;14.00;99.90
26703;DHT22;14316;51.074;3.704;2023-06-04T02:47:45;14.00;99.90
26703;DHT22;14316;51.074;3.704;2023-06-04T02:50:11;14.00;99.90
26703;DHT22;14316;51.074;3.704;2023-06-04T02:52:37;14.00;99.90
26703;DHT22;14316;51.074;3.704;2023-06-04T02:55:04;14.10;99.90
26703;DHT22;14316;51.074;3.704;2023-06-04T02:57:30;14.00;99.90
26703;DHT22;14316;51.074;3.704;2023-06-04T02:59:56;14.00;99.90
26703;DHT22;14316;51.074;3.704;2023-06-04T03:02:23;14.00;99.90
26703;DHT22;14316;51.074;3.704;2023-06-04T03:04:48;14.00;99.90
26703;DHT22;14316;51.074;3.704;2023-06-04T03:07:16;14.00;99.90
26703;DHT22;14316;51.074;3.704;2023-06-04T03:09:46;14.00;99.90
26703;DHT22;14316;51.074;3.704;2023-06-04T03:12:12;13.90;99.90
26703;DHT22;14316;51.074;3.704;2023-06-04T03:14:38;13.90;99.90
26703;DHT22;14316;51.074;3.704;2023-06-04T03:17:04;13.90;99.90
26703;DHT22;14316;51.074;3.704;2023-06-04T03:19:36;13.90;99.90
26703;DHT22;14316;51.074;3.704;2023-06-04T03:22:03;13.80;99.90
26703;DHT22;14316;51.074;3.704;2023-06-04T03:24:33;13.80;99.90
26703;DHT22;14316;51.074;3.704;2023-06-04T03:27:00;13.80;99.90
26703;DHT22;14316;51.074;3.704;2023-06-04T03:29:26;13.80;99.90
26703;DHT22;14316;51.074;3.704;2023-06-04T03:31:52;13.70;99.90
26703;DHT22;14316;51.074;3.704;2023-06-04T03:34:18;13.70;99.90
26703;DHT22;14316;51.074;3.704;2023-06-04T03:36:44;13.70;99.90
26703;DHT22;14316;51.074;3.704;2023-06-04T03:39:10;13.70;99.90
26703;DHT22;14316;51.074;3.704;2023-06-04T03:41:36;13.70;99.90
26703;DHT22;14316;51.074;3.704;2023-06-04T03:44:02;13.60;99.90
26703;DHT22;14316;51.074;3.704;2023-06-04T03:46:28;13.60;99.90
26703;DHT22;14316;51.074;3.704;2023-06-04T03:48:58;13.60;99.90
26703;DHT22;14316;51.074;3.704;2023-06-04T03:51:24;13.60;99.90
26703;DHT22;14316;51.074;3.704;2023-06-04T03:53:50;13.70;99.90
26703;DHT22;14316;51.074;3.704;2023-06-04T03:56:16;13.70;99.90
26703;DHT22;14316;51.074;3.704;2023-06-04T03:58:42;13.70;99.90
26703;DHT22;14316;51.074;3.704;2023-06-04T04:01:07;13.70;99.90
26703;DHT22;14316;51.074;3.704;2023-06-04T04:03:36;13.80;99.90
26703;DHT22;14316;51.074;3.704;2023-06-04T04:06:02;13.80;99.90
26703;DHT22;14316;51.074;3.704;2023-06-04T04:08:28;13.80;99.90
26703;DHT22;14316;51.074;3.704;2023-06-04T04:10:57;13.90;99.90
26703;DHT22;14316;51.074;3.704;2023-06-04T04:13:23;13.90;99.90
26703;DHT22;14316;51.074;3.704;2023-06-04T04:15:49;13.90;99.90
26703;DHT22;14316;51.074;3.704;2023-06-04T04:18:21;13.90;99.90
26703;DHT22;14316;51.074;3.704;2023-06-04T04:20:47;13.90;99.90
26703;DHT22;14316;51.074;3.704;2023-06-04T04:23:13;14.00;99.90
26703;DHT22;14316;51.074;3.704;2023-06-04T04:25:39;14.00;99.90
26703;DHT22;14316;51.074;3.704;2023-06-04T04:28:05;14.00;99.90
26703;DHT22;14316;51.074;3.704;2023-06-04T04:30:34;14.00;99.90
26703;DHT22;14316;51.074;3.704;2023-06-04T04:33:01;14.00;99.90
26703;DHT22;14316;51.074;3.704;2023-06-04T04:35:27;14.00;99.90
26703;DHT22;14316;51.074;3.704;2023-06-04T04:37:54;14.10;99.90
26703;DHT22;14316;51.074;3.704;2023-06-04T04:40:20;14.10;99.90
26703;DHT22;14316;51.074;3.704;2023-06-04T04:42:47;14.10;99.90
26703;DHT22;14316;51.074;3.704;2023-06-04T04:45:12;14.20;99.90
26703;DHT22;14316;51.074;3.704;2023-06-04T04:47:38;14.20;99.90
26703;DHT22;14316;51.074;3.704;2023-06-04T04:50:04;14.20;99.90
26703;DHT22;14316;51.074;3.704;2023-06-04T04:52:31;14.20;99.90
26703;DHT22;14316;51.074;3.704;2023-06-04T04:54:56;14.30;99.90
26703;DHT22;14316;51.074;3.704;2023-06-04T04:57:23;14.30;99.90
26703;DHT22;14316;51.074;3.704;2023-06-04T04:59:49;14.30;99.90
26703;DHT22;14316;51.074;3.704;2023-06-04T05:02:15;14.40;99.90
26703;DHT22;14316;51.074;3.704;2023-06-04T05:04:41;14.40;99.90
26703;DHT22;14316;51.074;3.704;2023-06-04T05:07:10;14.50;99.90
26703;DHT22;14316;51.074;3.704;2023-06-04T05:09:37;14.50;99.90
26703;DHT22;14316;51.074;3.704;2023-06-04T05:12:02;14.50;99.90
26703;DHT22;14316;51.074;3.704;2023-06-04T05:14:28;14.50;99.90
26703;DHT22;14316;51.074;3.704;2023-06-04T05:16:55;14.60;99.90
26703;DHT22;14316;51.074;3.704;2023-06-04T05:19:23;14.60;99.90
26703;DHT22;14316;51.074;3.704;2023-06-04T05:21:49;14.70;99.90
26703;DHT22;14316;51.074;3.704;2023-06-04T05:24:15;14.80;99.90
26703;DHT22;14316;51.074;3.704;2023-06-04T05:26:41;14.90;99.90
26703;DHT22;14316;51.074;3.704;2023-06-04T05:29:07;14.90;99.90
26703;DHT22;14316;51.074;3.704;2023-06-04T05:31:33;15.00;99.90
26703;DHT22;14316;51.074;3.704;2023-06-04T05:34:00;15.00;99.90
26703;DHT22;14316;51.074;3.704;2023-06-04T05:36:29;15.00;99.90
26703;DHT22;14316;51.074;3.704;2023-06-04T05:38:54;15.20;99.90
26703;DHT22;14316;51.074;3.704;2023-06-04T05:41:26;15.20;99.90
26703;DHT22;14316;51.074;3.704;2023-06-04T05:43:51;15.20;99.90
26703;DHT22;14316;51.074;3.704;2023-06-04T05:46:18;15.30;99.90
26703;DHT22;14316;51.074;3.704;2023-06-04T05:48:43;15.30;99.90
26703;DHT22;14316;51.074;3.704;2023-06-04T05:51:09;15.40;99.90
26703;DHT22;14316;51.074;3.704;2023-06-04T05:53:35;15.50;99.90
26703;DHT22;14316;51.074;3.704;2023-06-04T05:56:01;15.50;99.90
26703;DHT22;14316;51.074;3.704;2023-06-04T05:58:26;15.60;99.90
26703;DHT22;14316;51.074;3.704;2023-06-04T06:00:52;15.70;99.90
26703;DHT22;14316;51.074;3.704;2023-06-04T06:03:18;15.70;99.90
26703;DHT22;14316;51.074;3.704;2023-06-04T06:05:45;15.70;99.90
26703;DHT22;14316;51.074;3.704;2023-06-04T06:08:11;15.80;99.90
26703;DHT22;14316;51.074;3.704;2023-06-04T06:10:37;15.80;99.90
26703;DHT22;14316;51.074;3.704;2023-06-04T06:13:02;15.90;99.90
26703;DHT22;14316;51.074;3.704;2023-06-04T06:15:28;16.00;99.90
26703;DHT22;14316;51.074;3.704;2023-06-04T06:17:55;16.10;99.90
26703;DHT22;14316;51.074;3.704;2023-06-04T06:20:21;16.10;99.90
26703;DHT22;14316;51.074;3.704;2023-06-04T06:22:47;16.10;99.90
26703;DHT22;14316;51.074;3.704;2023-06-04T06:25:13;16.20;99.90
26703;DHT22;14316;51.074;3.704;2023-06-04T06:27:41;16.30;99.90
26703;DHT22;14316;51.074;3.704;2023-06-04T06:30:08;16.40;99.90
26703;DHT22;14316;51.074;3.704;2023-06-04T06:32:34;16.40;99.90
26703;DHT22;14316;51.074;3.704;2023-06-04T06:35:01;16.60;99.90
26703;DHT22;14316;51.074;3.704;2023-06-04T06:37:27;16.70;99.90
26703;DHT22;14316;51.074;3.704;2023-06-04T06:39:52;16.80;99.90
26703;DHT22;14316;51.074;3.704;2023-06-04T06:42:18;16.80;99.90
26703;DHT22;14316;51.074;3.704;2023-06-04T06:44:45;16.90;99.90
26703;DHT22;14316;51.074;3.704;2023-06-04T06:47:11;17.00;99.90
26703;DHT22;14316;51.074;3.704;2023-06-04T06:49:39;17.00;99.90
26703;DHT22;14316;51.074;3.704;2023-06-04T06:52:06;17.00;99.90
26703;DHT22;14316;51.074;3.704;2023-06-04T06:54:31;17.10;99.90
26703;DHT22;14316;51.074;3.704;2023-06-04T06:56:57;17.20;99.90
26703;DHT22;14316;51.074;3.704;2023-06-04T06:59:23;17.40;99.90
26703;DHT22;14316;51.074;3.704;2023-06-04T07:01:49;17.40;99.90
26703;DHT22;14316;51.074;3.704;2023-06-04T07:04:15;17.60;99.90
26703;DHT22;14316;51.074;3.704;2023-06-04T07:06:42;17.70;99.90
26703;DHT22;14316;51.074;3.704;2023-06-04T07:09:08;17.70;99.90
26703;DHT22;14316;51.074;3.704;2023-06-04T07:11:34;17.60;99.90
26703;DHT22;14316;51.074;3.704;2023-06-04T07:14:00;17.70;99.90
26703;DHT22;14316;51.074;3.704;2023-06-04T07:16:28;17.70;99.90
26703;DHT22;14316;51.074;3.704;2023-06-04T07:18:54;17.80;99.90
26703;DHT22;14316;51.074;3.704;2023-06-04T07:21:20;18.00;99.90
26703;DHT22;14316;51.074;3.704;2023-06-04T07:23:49;18.10;99.90
26703;DHT22;14316;51.074;3.704;2023-06-04T07:26:16;18.10;99.90
26703;DHT22;14316;51.074;3.704;2023-06-04T07:28:43;18.20;99.90
26703;DHT22;14316;51.074;3.704;2023-06-04T07:31:09;18.20;99.90
26703;DHT22;14316;51.074;3.704;2023-06-04T07:33:35;18.30;99.90
26703;DHT22;14316;51.074;3.704;2023-06-04T07:36:15;18.50;99.90
26703;DHT22;14316;51.074;3.704;2023-06-04T07:38:41;18.60;99.90
26703;DHT22;14316;51.074;3.704;2023-06-04T07:41:06;18.60;99.90
26703;DHT22;14316;51.074;3.704;2023-06-04T07:43:36;18.60;99.90
26703;DHT22;14316;51.074;3.704;2023-06-04T07:46:02;18.60;99.90
26703;DHT22;14316;51.074;3.704;2023-06-04T07:48:28;18.70;99.90
26703;DHT22;14316;51.074;3.704;2023-06-04T07:51:02;18.90;99.90
26703;DHT22;14316;51.074;3.704;2023-06-04T07:53:28;18.80;99.90
26703;DHT22;14316;51.074;3.704;2023-06-04T07:55:54;18.80;99.90
26703;DHT22;14316;51.074;3.704;2023-06-04T07:58:20;18.80;99.90
26703;DHT22;14316;51.074;3.704;2023-06-04T08:00:46;18.70;99.90
26703;DHT22;14316;51.074;3.704;2023-06-04T08:03:12;18.70;99.90
26703;DHT22;14316;51.074;3.704;2023-06-04T08:05:38;18.70;99.90
26703;DHT22;14316;51.074;3.704;2023-06-04T08:08:04;18.80;99.90
26703;DHT22;14316;51.074;3.704;2023-06-04T08:10:30;18.80;99.90
26703;DHT22;14316;51.074;3.704;2023-06-04T08:12:56;19.00;99.90
26703;DHT22;14316;51.074;3.704;2023-06-04T08:15:22;19.10;99.90
26703;DHT22;14316;51.074;3.704;2023-06-04T08:17:48;19.20;99.90
26703;DHT22;14316;51.074;3.704;2023-06-04T08:20:14;19.30;99.90
26703;DHT22;14316;51.074;3.704;2023-06-04T08:22:40;19.30;99.90
26703;DHT22;14316;51.074;3.704;2023-06-04T08:25:07;19.30;99.90
26703;DHT22;14316;51.074;3.704;2023-06-04T08:27:34;19.30;99.90
26703;DHT22;14316;51.074;3.704;2023-06-04T08:30:00;19.40;99.90
26703;DHT22;14316;51.074;3.704;2023-06-04T08:32:26;19.40;99.90
26703;DHT22;14316;51.074;3.704;2023-06-04T08:34:52;19.50;99.90
26703;DHT22;14316;51.074;3.704;2023-06-04T08:37:18;19.60;99.90
26703;DHT22;14316;51.074;3.704;2023-06-04T08:39:43;19.80;99.90
26703;DHT22;14316;51.074;3.704;2023-06-04T08:42:22;20.00;99.90
26703;DHT22;14316;51.074;3.704;2023-06-04T08:44:52;20.00;99.90
26703;DHT22;14316;51.074;3.704;2023-06-04T08:47:22;20.10;99.90
26703;DHT22;14316;51.074;3.704;2023-06-04T08:49:50;20.10;99.90
26703;DHT22;14316;51.074;3.704;2023-06-04T08:52:18;20.30;99.90
26703;DHT22;14316;51.074;3.704;2023-06-04T08:54:50;20.60;99.90
26703;DHT22;14316;51.074;3.704;2023-06-04T08:57:20;20.80;99.90
26703;DHT22;14316;51.074;3.704;2023-06-04T08:59:46;21.00;99.90
26703;DHT22;14316;51.074;3.704;2023-06-04T09:02:14;21.10;99.90
26703;DHT22;14316;51.074;3.704;2023-06-04T09:04:40;21.30;99.90
26703;DHT22;14316;51.074;3.704;2023-06-04T09:07:06;21.40;99.90
26703;DHT22;14316;51.074;3.704;2023-06-04T09:09:38;21.60;99.90
26703;DHT22;14316;51.074;3.704;2023-06-04T09:12:09;21.80;99.90
26703;DHT22;14316;51.074;3.704;2023-06-04T09:14:35;21.90;97.50
26703;DHT22;14316;51.074;3.704;2023-06-04T09:17:01;21.90;99.20
26703;DHT22;14316;51.074;3.704;2023-06-04T09:19:27;22.10;96.60
26703;DHT22;14316;51.074;3.704;2023-06-04T09:21:57;22.40;99.90
26703;DHT22;14316;51.074;3.704;2023-06-04T09:24:25;22.60;94.90
26703;DHT22;14316;51.074;3.704;2023-06-04T09:26:51;22.90;95.20
26703;DHT22;14316;51.074;3.704;2023-06-04T09:29:17;23.10;94.70
26703;DHT22;14316;51.074;3.704;2023-06-04T09:31:47;23.20;94.30
26703;DHT22;14316;51.074;3.704;2023-06-04T09:34:31;23.40;92.40
26703;DHT22;14316;51.074;3.704;2023-06-04T09:36:57;23.60;90.20
26703;DHT22;14316;51.074;3.704;2023-06-04T09:39:23;23.60;90.10
26703;DHT22;14316;51.074;3.704;2023-06-04T09:42:00;23.40;87.60
26703;DHT22;14316;51.074;3.704;2023-06-04T09:44:26;23.30;89.80
26703;DHT22;14316;51.074;3.704;2023-06-04T09:46:58;23.30;82.60
26703;DHT22;14316;51.074;3.704;2023-06-04T09:49:24;23.30;82.30
26703;DHT22;14316;51.074;3.704;2023-06-04T09:51:51;23.50;86.10
26703;DHT22;14316;51.074;3.704;2023-06-04T09:54:17;23.90;88.30
26703;DHT22;14316;51.074;3.704;2023-06-04T09:56:42;24.10;84.60
26703;DHT22;14316;51.074;3.704;2023-06-04T09:59:09;24.20;80.90
26703;DHT22;14316;51.074;3.704;2023-06-04T10:01:39;24.30;84.00
26703;DHT22;14316;51.074;3.704;2023-06-04T10:04:07;24.60;87.90
26703;DHT22;14316;51.074;3.704;2023-06-04T10:06:35;25.00;84.00
26703;DHT22;14316;51.074;3.704;2023-06-04T10:09:05;25.40;78.60
26703;DHT22;14316;51.074;3.704;2023-06-04T10:11:35;25.90;78.30
26703;DHT22;14316;51.074;3.704;2023-06-04T10:14:06;26.10;76.90
26703;DHT22;14316;51.074;3.704;2023-06-04T10:16:37;26.50;88.10
26703;DHT22;14316;51.074;3.704;2023-06-04T10:19:04;26.40;73.50
26703;DHT22;14316;51.074;3.704;2023-06-04T10:21:32;26.10;76.30
26703;DHT22;14316;51.074;3.704;2023-06-04T10:24:01;25.50;69.50
26703;DHT22;14316;51.074;3.704;2023-06-04T10:26:27;25.40;74.20
26703;DHT22;14316;51.074;3.704;2023-06-04T10:28:53;25.70;73.30
26703;DHT22;14316;51.074;3.704;2023-06-04T10:31:20;26.30;72.10
26703;DHT22;14316;51.074;3.704;2023-06-04T10:33:45;26.90;77.30
26703;DHT22;14316;51.074;3.704;2023-06-04T10:36:19;27.40;73.90
26703;DHT22;14316;51.074;3.704;2023-06-04T10:38:50;27.60;68.50
26703;DHT22;14316;51.074;3.704;2023-06-04T10:41:17;27.80;71.50
26703;DHT22;14316;51.074;3.704;2023-06-04T10:43:46;28.00;68.80
26703;DHT22;14316;51.074;3.704;2023-06-04T10:46:16;28.40;72.00
26703;DHT22;14316;51.074;3.704;2023-06-04T10:48:46;29.00;76.00
26703;DHT22;14316;51.074;3.704;2023-06-04T10:51:12;29.30;64.70
26703;DHT22;14316;51.074;3.704;2023-06-04T10:53:38;29.40;61.90
26703;DHT22;14316;51.074;3.704;2023-06-04T10:56:04;29.60;64.70
26703;DHT22;14316;51.074;3.704;2023-06-04T10:58:34;29.60;59.90
26703;DHT22;14316;51.074;3.704;2023-06-04T11:00:59;29.30;63.50
26703;DHT22;14316;51.074;3.704;2023-06-04T11:03:35;28.90;57.80
26703;DHT22;14316;51.074;3.704;2023-06-04T11:06:01;29.20;57.80
26703;DHT22;14316;51.074;3.704;2023-06-04T11:08:29;29.80;62.00
26703;DHT22;14316;51.074;3.704;2023-06-04T11:10:55;29.20;52.70
26703;DHT22;14316;51.074;3.704;2023-06-04T11:13:24;29.30;56.10
26703;DHT22;14316;51.074;3.704;2023-06-04T11:15:53;30.10;59.40
26703;DHT22;14316;51.074;3.704;2023-06-04T11:18:22;31.40;58.40
26703;DHT22;14316;51.074;3.704;2023-06-04T11:20:49;32.50;57.00
26703;DHT22;14316;51.074;3.704;2023-06-04T11:23:16;33.70;52.80
26703;DHT22;14316;51.074;3.704;2023-06-04T11:25:43;32.70;48.60
26703;DHT22;14316;51.074;3.704;2023-06-04T11:28:15;31.80;51.10
26703;DHT22;14316;51.074;3.704;2023-06-04T11:30:42;32.90;53.50
26703;DHT22;14316;51.074;3.704;2023-06-04T11:33:08;33.90;49.60
26703;DHT22;14316;51.074;3.704;2023-06-04T11:35:41;33.30;47.60
26703;DHT22;14316;51.074;3.704;2023-06-04T11:38:09;34.00;48.40
26703;DHT22;14316;51.074;3.704;2023-06-04T11:40:35;34.30;44.90
26703;DHT22;14316;51.074;3.704;2023-06-04T11:43:02;34.00;45.10
26703;DHT22;14316;51.074;3.704;2023-06-04T11:45:27;33.10;42.00
26703;DHT22;14316;51.074;3.704;2023-06-04T11:47:56;33.70;44.60
26703;DHT22;14316;51.074;3.704;2023-06-04T11:50:25;36.30;44.10
26703;DHT22;14316;51.074;3.704;2023-06-04T11:52:52;37.90;43.80
26703;DHT22;14316;51.074;3.704;2023-06-04T11:55:18;40.30;41.10
26703;DHT22;14316;51.074;3.704;2023-06-04T11:57:47;38.80;35.40
26703;DHT22;14316;51.074;3.704;2023-06-04T12:00:14;37.10;36.30
26703;DHT22;14316;51.074;3.704;2023-06-04T12:02:54;35.70;36.70
26703;DHT22;14316;51.074;3.704;2023-06-04T12:05:22;36.20;37.30
26703;DHT22;14316;51.074;3.704;2023-06-04T12:07:49;37.20;34.30
26703;DHT22;14316;51.074;3.704;2023-06-04T12:10:19;36.20;35.40
26703;DHT22;14316;51.074;3.704;2023-06-04T12:12:44;36.20;37.30
26703;DHT22;14316;51.074;3.704;2023-06-04T12:15:10;36.20;38.00
26703;DHT22;14316;51.074;3.704;2023-06-04T12:17:37;38.60;39.20
26703;DHT22;14316;51.074;3.704;2023-06-04T12:20:03;41.60;40.40
26703;DHT22;14316;51.074;3.704;2023-06-04T12:22:31;43.90;33.90
26703;DHT22;14316;51.074;3.704;2023-06-04T12:24:57;46.10;35.50
26703;DHT22;14316;51.074;3.704;2023-06-04T12:27:26;48.10;34.50
26703;DHT22;14316;51.074;3.704;2023-06-04T12:30:18;47.40;29.40
26703;DHT22;14316;51.074;3.704;2023-06-04T12:32:44;48.00;28.20
26703;DHT22;14316;51.074;3.704;2023-06-04T12:35:11;46.10;28.20
26703;DHT22;14316;51.074;3.704;2023-06-04T12:37:36;43.80;29.30
26703;DHT22;14316;51.074;3.704;2023-06-04T12:40:03;42.40;27.20
26703;DHT22;14316;51.074;3.704;2023-06-04T12:42:32;40.10;29.40
26703;DHT22;14316;51.074;3.704;2023-06-04T12:44:58;38.60;30.60
26703;DHT22;14316;51.074;3.704;2023-06-04T12:47:23;38.80;30.30
26703;DHT22;14316;51.074;3.704;2023-06-04T12:49:49;40.30;31.30
26703;DHT22;14316;51.074;3.704;2023-06-04T12:52:16;41.90;29.50
26703;DHT22;14316;51.074;3.704;2023-06-04T12:54:45;42.50;30.50
26703;DHT22;14316;51.074;3.704;2023-06-04T12:57:10;44.00;33.40
26703;DHT22;14316;51.074;3.704;2023-06-04T12:59:36;46.40;30.30
26703;DHT22;14316;51.074;3.704;2023-06-04T13:02:02;48.60;27.70
26703;DHT22;14316;51.074;3.704;2023-06-04T13:04:28;50.30;29.30
26703;DHT22;14316;51.074;3.704;2023-06-04T13:06:55;48.50;27.70
26703;DHT22;14316;51.074;3.704;2023-06-04T13:09:24;47.40;25.90
26703;DHT22;14316;51.074;3.704;2023-06-04T13:11:51;46.00;26.80
26703;DHT22;14316;51.074;3.704;2023-06-04T13:14:17;44.00;26.90
26703;DHT22;14316;51.074;3.704;2023-06-04T13:16:43;42.70;29.80
26703;DHT22;14316;51.074;3.704;2023-06-04T13:19:10;41.70;27.60
26703;DHT22;14316;51.074;3.704;2023-06-04T13:21:37;41.30;28.70
26703;DHT22;14316;51.074;3.704;2023-06-04T13:24:02;40.90;30.20
26703;DHT22;14316;51.074;3.704;2023-06-04T13:26:28;40.70;29.50
26703;DHT22;14316;51.074;3.704;2023-06-04T13:28:54;42.60;28.30
26703;DHT22;14316;51.074;3.704;2023-06-04T13:31:20;42.10;29.20
26703;DHT22;14316;51.074;3.704;2023-06-04T13:33:46;41.00;26.80
26703;DHT22;14316;51.074;3.704;2023-06-04T13:36:11;43.10;31.40
26703;DHT22;14316;51.074;3.704;2023-06-04T13:38:37;43.20;28.70
26703;DHT22;14316;51.074;3.704;2023-06-04T13:41:03;42.30;28.10
26703;DHT22;14316;51.074;3.704;2023-06-04T13:43:28;41.20;28.50
26703;DHT22;14316;51.074;3.704;2023-06-04T13:45:54;41.10;29.80
26703;DHT22;14316;51.074;3.704;2023-06-04T13:48:20;41.90;31.90
26703;DHT22;14316;51.074;3.704;2023-06-04T13:50:46;42.50;29.40
26703;DHT22;14316;51.074;3.704;2023-06-04T13:53:11;42.80;32.70
26703;DHT22;14316;51.074;3.704;2023-06-04T13:55:40;42.50;28.70
26703;DHT22;14316;51.074;3.704;2023-06-04T13:58:06;41.90;26.80
26703;DHT22;14316;51.074;3.704;2023-06-04T14:00:33;43.80;29.80
26703;DHT22;14316;51.074;3.704;2023-06-04T14:02:59;44.70;28.10
26703;DHT22;14316;51.074;3.704;2023-06-04T14:05:25;43.70;26.40
26703;DHT22;14316;51.074;3.704;2023-06-04T14:07:53;43.80;29.30
26703;DHT22;14316;51.074;3.704;2023-06-04T14:10:19;43.20;30.50
26703;DHT22;14316;51.074;3.704;2023-06-04T14:12:45;43.40;26.90
26703;DHT22;14316;51.074;3.704;2023-06-04T14:15:11;42.40;28.70
26703;DHT22;14316;51.074;3.704;2023-06-04T14:17:38;41.50;29.30
26703;DHT22;14316;51.074;3.704;2023-06-04T14:20:05;41.10;29.80
26703;DHT22;14316;51.074;3.704;2023-06-04T14:22:41;40.40;30.20
26703;DHT22;14316;51.074;3.704;2023-06-04T14:25:07;40.20;31.40
26703;DHT22;14316;51.074;3.704;2023-06-04T14:27:34;40.30;31.30
26703;DHT22;14316;51.074;3.704;2023-06-04T14:30:04;39.80;30.40
26703;DHT22;14316;51.074;3.704;2023-06-04T14:32:30;39.60;31.00
26703;DHT22;14316;51.074;3.704;2023-06-04T14:34:57;40.10;31.80
26703;DHT22;14316;51.074;3.704;2023-06-04T14:37:23;39.50;32.10
26703;DHT22;14316;51.074;3.704;2023-06-04T14:39:48;39.10;29.60
26703;DHT22;14316;51.074;3.704;2023-06-04T14:42:16;40.40;31.00
26703;DHT22;14316;51.074;3.704;2023-06-04T14:44:41;40.90;28.90
26703;DHT22;14316;51.074;3.704;2023-06-04T14:47:07;41.30;30.30
26703;DHT22;14316;51.074;3.704;2023-06-04T14:49:33;41.50;33.10
26703;DHT22;14316;51.074;3.704;2023-06-04T14:51:59;41.90;28.90
26703;DHT22;14316;51.074;3.704;2023-06-04T14:54:25;41.40;28.70
26703;DHT22;14316;51.074;3.704;2023-06-04T14:56:51;40.20;29.60
26703;DHT22;14316;51.074;3.704;2023-06-04T14:59:17;39.90;32.10
26703;DHT22;14316;51.074;3.704;2023-06-04T15:01:43;40.10;30.10
26703;DHT22;14316;51.074;3.704;2023-06-04T15:04:08;39.70;31.30
26703;DHT22;14316;51.074;3.704;2023-06-04T15:06:34;39.30;32.40
26703;DHT22;14316;51.074;3.704;2023-06-04T15:09:00;38.70;33.80
26703;DHT22;14316;51.074;3.704;2023-06-04T15:11:26;39.20;36.90
26703;DHT22;14316;51.074;3.704;2023-06-04T15:13:53;39.40;37.00
26703;DHT22;14316;51.074;3.704;2023-06-04T15:16:19;39.20;37.60
26703;DHT22;14316;51.074;3.704;2023-06-04T15:18:45;38.50;37.00
26703;DHT22;14316;51.074;3.704;2023-06-04T15:21:11;37.40;38.10
26703;DHT22;14316;51.074;3.704;2023-06-04T15:23:37;37.90;38.20
26703;DHT22;14316;51.074;3.704;2023-06-04T15:26:05;38.20;38.20
26703;DHT22;14316;51.074;3.704;2023-06-04T15:28:31;38.10;38.20
26703;DHT22;14316;51.074;3.704;2023-06-04T15:30:57;37.90;39.20